Time;durP1;ratioP1;P1;durP2;ratioP2;P2;SDS_P1;SDS_P2;PMS_P1;PMS_P2;Temp;Humidity;BMP_temperature;BMP_pressure;BME280_temperature;BME280_humidity;BME280_pressure;Samples;Min_cycle;Max_cycle;Signal;HPM_P1;HPM_P2
2022/03/17 00:00:01;;;;;;;25.88;17.65;;;;;;;10.76;76.01;101811.56;5036556;28;20498;-62
2022/03/17 00:02:26;;;;;;;27.23;17.60;;;;;;;10.81;76.14;101820.28;5035376;28;20029;-62
2022/03/17 00:04:52;;;;;;;24.90;18.05;;;;;;;10.80;76.01;101827.28;5035698;28;20419;-61
2022/03/17 00:07:18;;;;;;;29.08;18.50;;;;;;;10.78;76.27;101821.16;5035871;28;20029;-62
2022/03/17 00:09:43;;;;;;;26.33;18.05;;;;;;;10.81;76.08;101826.41;5035744;28;20095;-62
2022/03/17 00:12:09;;;;;;;24.98;17.17;;;;;;;10.75;76.01;101810.69;5035826;28;20360;-62
2022/03/17 00:14:35;;;;;;;30.63;17.70;;;;;;;10.74;76.09;101808.94;5036028;28;20069;-62
2022/03/17 00:17:00;;;;;;;26.35;17.88;;;;;;;10.72;76.51;101809.84;5035303;28;20022;-62
2022/03/17 00:19:26;;;;;;;28.30;18.60;;;;;;;10.68;76.59;101801.09;5035746;28;20045;-61
2022/03/17 00:21:51;;;;;;;28.85;17.92;;;;;;;10.70;76.66;101812.44;5035701;28;20044;-61
2022/03/17 00:24:17;;;;;;;26.05;18.27;;;;;;;10.68;76.92;101811.56;5035795;28;20068;-62
2022/03/17 00:26:43;;;;;;;32.58;18.38;;;;;;;10.71;76.67;101803.72;5035643;28;20037;-61
2022/03/17 00:29:08;;;;;;;28.00;18.77;;;;;;;10.66;77.14;101815.03;5035661;28;20033;-61
2022/03/17 00:31:37;;;;;;;27.67;18.45;;;;;;;10.62;77.45;101814.16;5035573;28;20428;-61
2022/03/17 00:34:07;;;;;;;26.13;17.92;;;;;;;10.62;77.56;101806.31;5035520;28;20451;-61
2022/03/17 00:36:34;;;;;;;25.88;17.88;;;;;;;10.57;77.55;101801.91;5035551;28;20026;-61
2022/03/17 00:38:59;;;;;;;26.77;18.13;;;;;;;10.56;77.84;101808.94;5035428;28;20033;-62
2022/03/17 00:41:25;;;;;;;29.60;18.73;;;;;;;10.54;77.92;101808.06;5035588;28;20044;-62
2022/03/17 00:43:50;;;;;;;29.23;18.88;;;;;;;10.46;78.17;101809.75;5035211;28;20140;-61
2022/03/17 00:46:15;;;;;;;26.40;17.95;;;;;;;10.51;78.15;101820.25;5035220;28;20036;-62
2022/03/17 00:48:40;;;;;;;27.33;18.17;;;;;;;10.52;78.03;101822.88;5035075;28;20132;-61
2022/03/17 00:51:06;;;;;;;29.88;19.85;;;;;;;10.43;78.61;101821.09;5035676;28;20040;-62
2022/03/17 00:53:31;;;;;;;32.28;19.50;;;;;;;10.40;78.65;101820.19;5035181;28;20048;-62
2022/03/17 00:55:56;;;;;;;27.35;19.08;;;;;;;10.39;79.10;101823.72;5035039;28;20037;-61
2022/03/17 00:58:22;;;;;;;28.20;18.70;;;;;;;10.38;79.13;101815.00;5035142;28;20429;-62
2022/03/17 01:00:48;;;;;;;30.10;19.33;;;;;;;10.42;79.53;101821.09;5035123;28;20108;-62
2022/03/17 01:03:13;;;;;;;33.47;19.42;;;;;;;10.43;78.97;101822.84;5034992;28;20068;-62
2022/03/17 01:05:39;;;;;;;28.75;18.20;;;;;;;10.40;79.37;101825.44;5035136;28;20029;-61
2022/03/17 01:08:04;;;;;;;25.40;18.40;;;;;;;10.41;79.41;101828.06;5034851;28;20030;-62
2022/03/17 01:10:29;;;;;;;28.10;18.75;;;;;;;10.39;79.85;101818.47;5035036;28;20105;-62
2022/03/17 01:12:56;;;;;;;28.65;18.67;;;;;;;10.36;79.89;101821.97;5034208;28;20120;-61
2022/03/17 01:15:21;;;;;;;28.52;18.77;;;;;;;10.45;79.73;101826.31;5034843;28;20095;-61
2022/03/17 01:17:46;;;;;;;28.70;18.50;;;;;;;10.44;79.74;101808.88;5034748;28;20033;-61
2022/03/17 01:20:12;;;;;;;27.17;18.20;;;;;;;10.51;79.55;101823.75;5034859;28;20065;-62
2022/03/17 01:22:38;;;;;;;30.05;19.17;;;;;;;10.49;80.10;101815.00;5034798;28;20044;-63
2022/03/17 01:25:05;;;;;;;30.42;18.33;;;;;;;10.49;80.10;101817.63;5035228;28;20030;-61
2022/03/17 01:27:30;;;;;;;27.27;19.35;;;;;;;10.45;80.11;101805.41;5034950;28;20052;-62
2022/03/17 01:29:56;;;;;;;29.52;18.40;;;;;;;10.50;80.13;101808.91;5034968;28;20428;-62
2022/03/17 01:32:22;;;;;;;30.80;19.30;;;;;;;10.46;80.45;101812.38;5034664;28;20022;-61
2022/03/17 01:34:48;;;;;;;31.80;19.30;;;;;;;10.59;80.19;101816.75;5034559;28;20429;-61
2022/03/17 01:37:14;;;;;;;29.88;19.17;;;;;;;10.63;80.09;101820.28;5034748;28;20125;-62
2022/03/17 01:39:40;;;;;;;28.63;18.98;;;;;;;10.67;79.81;101815.03;5034650;28;20065;-62
2022/03/17 01:42:08;;;;;;;29.58;19.45;;;;;;;10.64;79.88;101812.41;5034629;28;20103;-61
2022/03/17 01:44:33;;;;;;;30.67;19.63;;;;;;;10.68;79.85;101813.31;5034695;28;20034;-61
2022/03/17 01:49:44;;;;;;;31.75;19.55;;;;;;;10.65;80.23;101816.78;5034944;28;20361;-62
2022/03/17 01:52:09;;;;;;;27.90;18.23;;;;;;;10.62;80.61;101813.28;5034552;28;20033;-62
2022/03/17 01:54:36;;;;;;;31.05;18.90;;;;;;;10.68;80.58;101816.78;5034773;28;20044;-61
2022/03/17 01:57:07;;;;;;;29.83;18.95;;;;;;;10.64;81.02;101822.88;5033819;28;20061;-61
2022/03/17 01:59:34;;;;;;;29.30;18.83;;;;;;;10.68;80.82;101819.41;5038867;28;20491;-61
2022/03/17 02:01:59;;;;;;;29.23;19.38;;;;;;;10.61;81.04;101806.31;5034845;28;20033;-61
2022/03/17 02:04:25;;;;;;;29.27;18.65;;;;;;;10.64;81.24;101809.81;5034433;28;20037;-61
2022/03/17 02:06:51;;;;;;;27.58;18.48;;;;;;;10.66;81.14;101809.81;5034694;28;20043;-62
2022/03/17 02:09:18;;;;;;;31.90;19.55;;;;;;;10.59;82.12;101813.28;5034476;28;20490;-62
2022/03/17 02:14:28;;;;;;;29.10;19.30;;;;;;;10.68;81.63;101821.16;5034529;28;20129;-62
2022/03/17 02:16:53;;;;;;;32.35;20.27;;;;;;;10.61;82.02;101822.88;5034377;28;20120;-62
2022/03/17 02:19:22;;;;;;;28.92;19.15;;;;;;;10.62;82.34;101829.88;5034320;28;20064;-62
2022/03/17 02:21:48;;;;;;;31.75;20.20;;;;;;;10.58;82.75;101835.06;5034246;28;20078;-61
2022/03/17 02:27:02;;;;;;;34.35;21.17;;;;;;;10.59;82.93;101835.09;5037742;28;20111;-62
2022/03/17 02:29:27;;;;;;;30.88;19.50;;;;;;;10.61;83.08;101838.59;5037705;28;20033;-61
2022/03/17 02:31:53;;;;;;;29.52;19.33;;;;;;;10.56;83.24;101840.34;5037947;28;20136;-62
2022/03/17 02:34:19;;;;;;;30.35;19.80;;;;;;;10.62;83.37;101839.47;5037658;28;20033;-62
2022/03/17 02:36:49;;;;;;;28.58;20.13;;;;;;;10.60;83.75;101841.19;5037618;28;20396;-62
2022/03/17 02:39:15;;;;;;;34.92;20.17;;;;;;;10.65;83.71;101853.44;5037112;28;20033;-62
2022/03/17 02:41:41;;;;;;;31.67;20.85;;;;;;;10.60;84.29;101846.44;5037445;28;20049;-61
2022/03/17 02:44:06;;;;;;;35.65;20.45;;;;;;;10.61;84.21;101851.66;5037740;28;20029;-62
2022/03/17 02:46:31;;;;;;;33.00;20.55;;;;;;;10.60;84.87;101849.91;5037258;28;20037;-61
2022/03/17 02:48:57;;;;;;;32.13;21.20;;;;;;;10.62;85.33;101866.50;5037376;28;20156;-61
2022/03/17 02:51:22;;;;;;;36.78;22.60;;;;;;;10.64;86.52;101863.91;5037312;28;20029;-62
2022/03/17 02:53:48;;;;;;;39.15;22.55;;;;;;;10.63;86.72;101862.16;5037341;28;20143;-62
2022/03/17 02:56:13;;;;;;;41.05;24.52;;;;;;;10.73;88.40;101866.56;5037111;28;20340;-61
2022/03/17 02:58:39;;;;;;;42.33;26.23;;;;;;;10.74;90.32;101874.38;5036662;28;20472;-61
2022/03/17 03:01:04;;;;;;;45.85;28.23;;;;;;;10.74;91.72;101882.25;5037317;28;20048;-61
2022/03/17 03:03:29;;;;;;;38.38;23.60;;;;;;;10.80;92.54;101900.59;5037067;28;20112;-62
2022/03/17 03:05:54;;;;;;;45.22;26.58;;;;;;;10.73;93.45;101895.34;5037226;28;20029;-61
2022/03/17 03:08:20;;;;;;;37.60;24.73;;;;;;;10.69;94.91;101899.69;5036966;28;20035;-62
2022/03/17 03:10:46;;;;;;;33.72;22.00;;;;;;;10.64;95.83;101922.38;5036833;28;20026;-61
2022/03/17 03:13:11;;;;;;;37.03;23.17;;;;;;;10.42;97.14;101907.44;5037336;28;20125;-62
2022/03/17 03:15:36;;;;;;;32.00;20.95;;;;;;;10.35;98.29;101929.22;5037003;28;20337;-62
2022/03/17 03:18:02;;;;;;;32.63;20.80;;;;;;;10.23;99.40;101932.63;5036951;28;20087;-62
2022/03/17 03:20:27;;;;;;;28.10;17.55;;;;;;;10.15;100.00;101947.38;5036661;28;20069;-62
2022/03/17 03:22:53;;;;;;;28.10;18.25;;;;;;;10.07;100.00;101959.53;5036812;28;20038;-62
2022/03/17 03:25:18;;;;;;;23.48;16.42;;;;;;;10.00;100.00;101950.78;5036539;28;20099;-62
2022/03/17 03:27:44;;;;;;;24.42;16.92;;;;;;;9.96;100.00;101963.81;5036658;28;20033;-62
2022/03/17 03:30:12;;;;;;;22.05;15.98;;;;;;;9.90;100.00;101969.88;5036684;28;20064;-62
2022/03/17 03:32:42;;;;;;;22.90;16.30;;;;;;;9.85;100.00;101971.59;5036683;28;20040;-62
2022/03/17 03:37:52;;;;;;;22.30;16.15;;;;;;;9.63;100.00;101988.84;5035366;28;20119;-62
2022/03/17 03:40:17;;;;;;;22.13;15.63;;;;;;;9.65;100.00;101988.84;5036213;28;20038;-62
2022/03/17 03:42:43;;;;;;;22.73;15.88;;;;;;;9.55;100.00;102000.94;5036308;28;20044;-61
2022/03/17 03:45:08;;;;;;;23.38;16.15;;;;;;;9.46;100.00;102006.09;5036087;28;20121;-62
2022/03/17 03:47:34;;;;;;;24.73;17.92;;;;;;;9.42;100.00;102017.38;5036115;28;20352;-61
2022/03/17 03:49:59;;;;;;;21.73;17.02;;;;;;;9.42;100.00;102025.22;5036357;28;20060;-62
2022/03/17 03:52:24;;;;;;;24.00;17.15;;;;;;;9.36;100.00;102031.25;5036227;28;20435;-62
2022/03/17 03:54:50;;;;;;;22.50;17.08;;;;;;;9.34;100.00;102037.34;5036131;28;20051;-62
2022/03/17 03:57:15;;;;;;;24.13;17.55;;;;;;;9.31;100.00;102047.75;5035994;28;20025;-62
2022/03/17 03:59:42;;;;;;;25.98;16.77;;;;;;;9.30;100.00;102056.44;5036038;28;20041;-62
2022/03/17 04:02:09;;;;;;;26.40;17.80;;;;;;;9.30;100.00;102064.28;5035893;28;20440;-61
2022/03/17 04:04:36;;;;;;;30.02;19.65;;;;;;;9.18;100.00;102061.53;5036031;28;20075;-61
2022/03/17 04:07:05;;;;;;;28.02;19.58;;;;;;;9.27;100.00;102080.78;5035872;28;20034;-63
2022/03/17 04:09:34;;;;;;;30.13;20.05;;;;;;;9.24;100.00;102083.34;5035815;28;20095;-62
2022/03/17 04:12:01;;;;;;;31.98;21.13;;;;;;;9.18;100.00;102083.25;5035969;28;20033;-62
2022/03/17 04:14:26;;;;;;;29.23;19.20;;;;;;;9.11;100.00;102097.13;5036069;28;20029;-62
2022/03/17 04:16:52;;;;;;;32.17;20.05;;;;;;;9.06;100.00;102102.28;5035590;28;20322;-62
2022/03/17 04:19:18;;;;;;;30.23;20.05;;;;;;;9.06;100.00;102115.34;5035655;28;20049;-61
2022/03/17 04:21:48;;;;;;;29.48;20.70;;;;;;;8.98;100.00;102113.50;5035409;28;20038;-61
2022/03/17 04:24:14;;;;;;;32.38;19.60;;;;;;;8.99;100.00;102133.53;5040673;28;20102;-62
2022/03/17 04:26:39;;;;;;;33.10;20.23;;;;;;;8.93;100.00;102136.91;5035635;28;20033;-61
2022/03/17 04:29:05;;;;;;;31.20;19.02;;;;;;;8.92;100.00;102148.22;5035753;28;20037;-61
2022/03/17 04:31:30;;;;;;;27.17;16.67;;;;;;;8.89;100.00;102148.16;5034177;28;20033;-62
2022/03/17 04:33:56;;;;;;;26.75;17.17;;;;;;;8.85;100.00;102163.75;5035325;28;20053;-61
2022/03/17 04:36:21;;;;;;;31.60;16.50;;;;;;;8.79;100.00;102171.50;5035165;28;20047;-62
2022/03/17 04:38:47;;;;;;;27.90;16.65;;;;;;;8.77;100.00;102181.06;5035305;28;20029;-61
2022/03/17 04:41:12;;;;;;;28.70;16.30;;;;;;;8.75;99.28;102186.25;5035259;28;20029;-62
2022/03/17 04:43:38;;;;;;;27.17;16.17;;;;;;;8.55;99.07;102167.66;5035375;28;20034;-61
2022/03/17 04:46:04;;;;;;;31.02;16.35;;;;;;;8.67;99.17;102187.84;5035208;28;20108;-61
2022/03/17 04:48:30;;;;;;;32.05;17.25;;;;;;;8.49;99.09;102183.19;5034998;28;20030;-62
2022/03/17 04:50:55;;;;;;;30.70;15.18;;;;;;;8.65;98.79;102208.72;5035120;28;20031;-61
2022/03/17 04:53:32;;;;;;;27.50;14.60;;;;;;;8.67;98.41;102208.72;5035101;28;20021;-62
2022/03/17 04:56:10;;;;;;;27.10;13.10;;;;;;;8.69;97.51;102228.75;5035356;28;20383;-62
2022/03/17 04:58:37;;;;;;;23.13;13.88;;;;;;;8.66;96.67;102236.53;5035293;28;20057;-61
2022/03/17 05:01:05;;;;;;;26.30;12.77;;;;;;;8.61;96.82;102235.59;5035009;28;20083;-61
2022/03/17 05:03:31;;;;;;;27.92;13.77;;;;;;;8.58;96.11;102247.72;5034892;28;20044;-62
2022/03/17 05:05:57;;;;;;;26.27;14.35;;;;;;;8.55;96.05;102253.75;5035045;28;20052;-62
2022/03/17 05:08:22;;;;;;;25.98;14.82;;;;;;;8.56;95.54;102265.94;5034954;28;20421;-62
2022/03/17 05:10:48;;;;;;;28.05;15.60;;;;;;;8.56;95.73;102273.78;5034906;28;20094;-62
2022/03/17 05:13:16;;;;;;;26.80;14.40;;;;;;;8.59;94.90;102286.88;5035005;28;20059;-62
2022/03/17 05:15:41;;;;;;;27.02;14.90;;;;;;;8.55;93.84;102279.84;5034909;28;20417;-61
2022/03/17 05:18:08;;;;;;;31.98;15.20;;;;;;;8.52;93.58;102305.00;5035111;28;20041;-61
2022/03/17 05:20:35;;;;;;;27.23;14.73;;;;;;;8.51;92.76;102318.88;5034823;28;20057;-62
2022/03/17 05:23:03;;;;;;;26.08;12.45;;;;;;;8.42;92.11;102317.00;5035424;28;20095;-61
2022/03/17 05:25:29;;;;;;;23.10;10.65;;;;;;;8.39;91.47;102322.16;5034775;28;20037;-60
2022/03/17 05:27:54;;;;;;;18.58;10.32;;;;;;;8.39;90.98;102329.97;5034810;28;20429;-61
2022/03/17 05:30:20;;;;;;;24.67;10.88;;;;;;;8.29;92.03;102328.03;5035084;28;20061;-61
2022/03/17 05:32:47;;;;;;;19.40;8.95;;;;;;;8.30;91.78;102337.59;5034624;28;20433;-61
2022/03/17 05:35:13;;;;;;;17.83;8.63;;;;;;;8.29;90.97;102338.47;5034779;28;20408;-62
2022/03/17 05:37:39;;;;;;;18.67;8.38;;;;;;;8.28;91.22;102347.13;5034631;28;20061;-62
2022/03/17 05:40:09;;;;;;;14.38;7.70;;;;;;;8.31;90.86;102357.63;5034802;28;20045;-61
2022/03/17 05:42:34;;;;;;;21.17;7.85;;;;;;;8.29;90.35;102367.16;5034576;28;20029;-62
2022/03/17 05:45:00;;;;;;;14.27;7.68;;;;;;;8.27;90.29;102361.00;5034592;28;20036;-61
2022/03/17 05:47:25;;;;;;;12.73;6.75;;;;;;;8.26;90.01;102382.72;5034622;28;20482;-62
2022/03/17 05:49:50;;;;;;;16.00;7.32;;;;;;;8.19;90.07;102376.50;5034562;28;20040;-61
2022/03/17 05:52:15;;;;;;;14.98;6.30;;;;;;;8.27;88.84;102385.38;5034540;28;20025;-61
2022/03/17 05:54:41;;;;;;;12.50;6.07;;;;;;;8.20;88.87;102393.91;5034690;28;20033;-61
2022/03/17 05:57:09;;;;;;;13.05;6.70;;;;;;;8.22;88.48;102407.84;5033606;28;20036;-61
2022/03/17 05:59:39;;;;;;;14.25;6.80;;;;;;;8.15;88.92;102399.84;5035458;28;20044;-61
2022/03/17 06:02:04;;;;;;;12.45;7.05;;;;;;;8.23;88.69;102413.94;5069429;28;20030;-62
2022/03/17 06:04:29;;;;;;;19.40;7.13;;;;;;;8.15;88.71;102412.88;5038555;28;20037;-61
2022/03/17 06:06:56;;;;;;;12.82;6.65;;;;;;;8.03;89.06;102406.56;5038238;28;20340;-61
2022/03/17 06:09:21;;;;;;;7.97;6.55;;;;;;;8.02;89.41;102420.44;5038219;28;20432;-61
2022/03/17 06:11:46;;;;;;;17.23;7.25;;;;;;;8.01;90.56;102444.75;5037959;28;20029;-61
2022/03/17 06:14:11;;;;;;;13.80;6.47;;;;;;;7.99;90.97;102458.59;5037906;28;20447;-61
2022/03/17 06:16:37;;;;;;;14.52;6.63;;;;;;;7.96;91.21;102461.16;5037694;28;20029;-60
2022/03/17 06:19:03;;;;;;;13.02;6.35;;;;;;;7.99;91.41;102464.69;5037921;28;20025;-61
2022/03/17 06:21:28;;;;;;;16.95;6.78;;;;;;;7.96;91.66;102463.75;5038191;28;20108;-61
2022/03/17 06:23:54;;;;;;;12.73;6.25;;;;;;;7.97;91.95;102471.59;5038032;28;20055;-60
2022/03/17 06:26:19;;;;;;;12.48;6.20;;;;;;;7.91;92.33;102470.59;5038029;28;20424;-61
2022/03/17 06:28:44;;;;;;;16.33;6.82;;;;;;;7.94;92.46;102481.09;5038086;28;20034;-60
2022/03/17 06:31:09;;;;;;;13.48;6.40;;;;;;;8.00;92.48;102487.31;5042959;28;20132;-62
2022/03/17 06:33:35;;;;;;;13.20;6.70;;;;;;;7.99;91.90;102487.28;5038302;28;20336;-61
2022/03/17 06:36:00;;;;;;;11.77;6.20;;;;;;;8.01;91.16;102501.22;5037870;28;20068;-61
2022/03/17 06:38:25;;;;;;;15.38;6.10;;;;;;;8.07;91.13;102508.31;5037636;28;20048;-60
2022/03/17 06:40:50;;;;;;;16.25;5.90;;;;;;;8.09;91.21;102512.72;5037560;28;20314;-60
2022/03/17 06:43:17;;;;;;;15.57;6.50;;;;;;;8.09;90.62;102517.94;5037430;28;20044;-62
2022/03/17 06:45:43;;;;;;;12.13;5.13;;;;;;;8.10;89.96;102529.25;5037339;28;20033;-61
2022/03/17 06:48:08;;;;;;;12.50;5.25;;;;;;;8.00;90.84;102526.41;5037449;28;20022;-61
2022/03/17 06:50:33;;;;;;;12.77;5.35;;;;;;;8.02;91.12;102539.50;5037300;28;20064;-61
2022/03/17 06:52:58;;;;;;;13.35;5.85;;;;;;;8.00;90.85;102542.06;5037753;28;20025;-61
2022/03/17 06:55:24;;;;;;;15.80;5.55;;;;;;;8.07;90.00;102544.81;5036290;28;20038;-60
2022/03/17 06:57:50;;;;;;;11.00;4.53;;;;;;;8.08;88.75;102547.47;5036709;28;20025;-60
2022/03/17 07:00:17;;;;;;;8.10;3.90;;;;;;;8.08;87.30;102549.19;5037010;28;20329;-60
2022/03/17 07:02:42;;;;;;;10.85;3.90;;;;;;;8.03;87.58;102568.22;5037257;28;20029;-60
2022/03/17 07:05:08;;;;;;;9.85;3.72;;;;;;;8.06;87.58;102569.13;5037382;28;20480;-60
2022/03/17 07:07:34;;;;;;;12.32;3.75;;;;;;;8.12;88.03;102571.91;5037163;28;20037;-60
2022/03/17 07:09:59;;;;;;;7.68;3.30;;;;;;;8.16;87.03;102579.81;5037004;28;20029;-60
2022/03/17 07:12:25;;;;;;;10.57;3.60;;;;;;;8.20;87.29;102588.59;5036957;28;20195;-60
2022/03/17 07:14:50;;;;;;;9.02;2.42;;;;;;;8.17;85.91;102581.56;5037136;28;20333;-59
2022/03/17 07:17:20;;;;;;;6.00;2.40;;;;;;;8.24;86.23;102587.84;5036543;28;20064;-59
2022/03/17 07:19:45;;;;;;;10.50;2.53;;;;;;;8.23;85.37;102593.88;5034452;28;20061;-60
2022/03/17 07:22:11;;;;;;;7.95;2.28;;;;;;;8.29;85.53;102596.66;5036873;28;20406;-59
2022/03/17 07:24:36;;;;;;;7.88;2.45;;;;;;;8.29;84.69;102602.75;5036495;28;20037;-59
2022/03/17 07:27:02;;;;;;;7.03;2.25;;;;;;;8.24;85.09;102606.97;5036623;28;20036;-59
2022/03/17 07:29:31;;;;;;;6.68;2.20;;;;;;;8.26;84.96;102613.09;5036925;28;20037;-59
2022/03/17 07:31:56;;;;;;;10.90;2.78;;;;;;;8.25;85.46;102627.00;5036803;28;20033;-61
2022/03/17 07:34:23;;;;;;;7.15;2.70;;;;;;;8.21;86.39;102625.16;5036600;28;20356;-61
2022/03/17 07:36:49;;;;;;;9.00;2.88;;;;;;;8.13;86.32;102637.13;5036285;28;20418;-61
2022/03/17 07:39:14;;;;;;;11.15;3.08;;;;;;;8.00;87.73;102635.91;5036467;28;20044;-61
2022/03/17 07:41:39;;;;;;;11.35;2.50;;;;;;;7.97;88.53;102655.78;5036280;28;20060;-61
2022/03/17 07:44:04;;;;;;;10.25;2.83;;;;;;;7.99;88.68;102655.00;5036277;28;20040;-61
2022/03/17 07:46:30;;;;;;;9.45;2.70;;;;;;;8.01;88.94;102665.47;5036199;28;20045;-62
2022/03/17 07:48:56;;;;;;;7.68;2.50;;;;;;;8.11;88.87;102669.22;5036244;28;20042;-61
2022/03/17 07:51:21;;;;;;;8.50;2.42;;;;;;;8.11;88.42;102664.00;5036177;28;20056;-62
2022/03/17 07:53:46;;;;;;;8.60;2.05;;;;;;;8.16;87.60;102659.75;5036460;28;20332;-61
2022/03/17 07:56:12;;;;;;;10.63;2.60;;;;;;;8.22;86.85;102667.75;5035968;28;20029;-61
2022/03/17 07:58:39;;;;;;;9.75;2.10;;;;;;;8.32;86.43;102675.00;5036436;28;20036;-60
2022/03/17 08:01:04;;;;;;;8.60;1.92;;;;;;;8.41;85.92;102684.78;5036032;28;20113;-61
2022/03/17 08:03:30;;;;;;;9.85;2.00;;;;;;;8.44;85.22;102682.25;5036160;28;20045;-61
2022/03/17 08:05:56;;;;;;;10.73;2.10;;;;;;;8.39;85.48;102674.31;5035872;28;20067;-61
2022/03/17 08:08:21;;;;;;;7.35;1.90;;;;;;;8.48;83.49;102685.00;5036189;28;20116;-61
2022/03/17 08:10:46;;;;;;;14.30;2.28;;;;;;;8.52;84.26;102699.84;5035732;28;20087;-61
2022/03/17 08:13:12;;;;;;;10.48;2.10;;;;;;;8.49;83.62;102704.09;5035652;28;20036;-61
2022/03/17 08:15:39;;;;;;;10.65;2.40;;;;;;;8.51;82.45;102705.91;5035842;28;20120;-61
2022/03/17 08:18:06;;;;;;;8.32;1.92;;;;;;;8.58;82.35;102710.44;5035606;28;20267;-61
2022/03/17 08:20:32;;;;;;;8.80;1.70;;;;;;;8.56;81.01;102713.88;5035760;28;20369;-61
2022/03/17 08:22:57;;;;;;;11.80;1.88;;;;;;;8.65;81.96;102724.53;5034119;28;20040;-61
2022/03/17 08:25:23;;;;;;;9.00;2.28;;;;;;;8.80;81.60;102721.41;5035247;28;20045;-61
2022/03/17 08:27:51;;;;;;;10.57;2.17;;;;;;;8.95;80.45;102742.66;5035325;28;20120;-61
2022/03/17 08:30:16;;;;;;;11.70;1.92;;;;;;;9.00;77.63;102736.69;5035345;28;20029;-61
2022/03/17 08:32:42;;;;;;;11.45;1.88;;;;;;;9.08;76.98;102744.72;5035615;28;20395;-61
2022/03/17 08:35:09;;;;;;;9.95;1.65;;;;;;;9.13;77.25;102750.03;5035647;28;20025;-61
2022/03/17 08:37:41;;;;;;;7.97;2.03;;;;;;;9.19;76.13;102763.22;5034997;28;20029;-61
2022/03/17 08:40:07;;;;;;;9.43;1.65;;;;;;;9.27;75.72;102770.41;5035612;28;20039;-61
2022/03/17 08:42:33;;;;;;;10.57;1.70;;;;;;;9.29;73.75;102773.94;5035589;28;20030;-62
2022/03/17 08:44:58;;;;;;;8.50;1.40;;;;;;;9.29;73.37;102779.16;5035412;28;20041;-61
2022/03/17 08:50:08;;;;;;;9.38;1.60;;;;;;;9.23;73.46;102794.69;5035253;28;20515;-62
2022/03/17 08:52:33;;;;;;;7.65;1.50;;;;;;;9.31;73.32;102794.88;5035397;28;20025;-62
2022/03/17 08:54:58;;;;;;;12.65;1.85;;;;;;;9.31;73.08;102790.53;5035047;28;20405;-61
2022/03/17 08:57:24;;;;;;;9.00;1.75;;;;;;;9.37;72.42;102793.28;5035219;28;20095;-62
2022/03/17 08:59:49;;;;;;;8.95;1.50;;;;;;;9.14;71.71;102760.53;5035182;28;20025;-62
2022/03/17 09:02:14;;;;;;;12.02;1.95;;;;;;;9.37;70.45;102788.03;5035119;28;20131;-62
2022/03/17 09:04:40;;;;;;;9.10;1.45;;;;;;;9.45;70.85;102797.78;5034668;28;20463;-62
2022/03/17 09:07:05;;;;;;;10.43;1.88;;;;;;;9.45;70.42;102801.28;5034920;28;20033;-62
2022/03/17 09:09:35;;;;;;;11.68;1.83;;;;;;;9.52;69.90;102808.44;5035295;28;20112;-62
2022/03/17 09:12:05;;;;;;;8.73;1.58;;;;;;;9.55;69.72;102813.72;5034890;28;20087;-62
2022/03/17 09:14:31;;;;;;;12.73;1.80;;;;;;;9.55;69.97;102815.44;5035108;28;20033;-62
2022/03/17 09:16:56;;;;;;;6.95;1.80;;;;;;;9.47;68.56;102824.84;5034875;28;20025;-61
2022/03/17 09:19:22;;;;;;;12.75;2.00;;;;;;;9.41;69.87;102822.97;5033798;28;20049;-62
2022/03/17 09:21:48;;;;;;;8.95;1.67;;;;;;;9.37;69.17;102831.56;5033945;28;20455;-61
2022/03/17 09:24:13;;;;;;;8.88;1.80;;;;;;;9.40;69.99;102837.75;5034276;28;20131;-62
2022/03/17 09:26:38;;;;;;;16.13;2.08;;;;;;;9.41;69.50;102841.25;5033165;28;20081;-62
2022/03/17 09:29:05;;;;;;;12.93;2.05;;;;;;;9.39;69.27;102842.94;5033699;28;20045;-62
2022/03/17 09:31:30;;;;;;;17.52;1.60;;;;;;;9.44;68.88;102849.19;5034658;28;20407;-62
2022/03/17 09:33:56;;;;;;;9.45;1.80;;;;;;;9.47;69.88;102843.16;5033942;28;20041;-62
2022/03/17 09:36:22;;;;;;;8.70;1.70;;;;;;;9.50;69.25;102845.84;5037872;28;20041;-62
2022/03/17 09:41:33;;;;;;;11.70;1.75;;;;;;;9.52;69.55;102862.44;5037700;28;20040;-62
2022/03/17 09:43:58;;;;;;;7.75;1.85;;;;;;;9.67;69.11;102860.16;5037934;28;20061;-61
2022/03/17 09:46:26;;;;;;;12.68;2.22;;;;;;;9.78;68.73;102863.91;5038196;28;20061;-62
2022/03/17 09:48:53;;;;;;;8.38;1.85;;;;;;;9.82;66.01;102870.97;5037528;28;20440;-61
2022/03/17 09:51:21;;;;;;;11.25;1.80;;;;;;;9.68;65.88;102860.22;5037915;28;20109;-61
2022/03/17 09:53:47;;;;;;;11.93;1.90;;;;;;;9.66;67.71;102861.03;5037907;28;20036;-61
2022/03/17 09:56:12;;;;;;;12.25;1.88;;;;;;;9.78;66.08;102876.97;5037806;28;20452;-62
2022/03/17 09:58:37;;;;;;;7.43;1.48;;;;;;;9.78;66.76;102879.59;5037444;28;20029;-61
2022/03/17 10:01:03;;;;;;;8.02;1.40;;;;;;;9.75;65.84;102876.91;5037987;28;20025;-64
2022/03/17 10:03:34;;;;;;;7.93;1.60;;;;;;;9.76;65.99;102892.63;5037453;28;20056;-61
2022/03/17 10:06:00;;;;;;;9.05;1.77;;;;;;;9.84;66.04;102905.88;5036016;28;20033;-61
2022/03/17 10:08:25;;;;;;;9.27;1.50;;;;;;;9.87;65.76;102911.16;5037614;28;20033;-61
2022/03/17 10:10:52;;;;;;;11.43;1.73;;;;;;;9.86;65.94;102912.03;5037472;28;20030;-61
2022/03/17 10:13:26;;;;;;;9.52;1.60;;;;;;;10.04;66.39;102914.19;5037235;28;20039;-61
2022/03/17 10:16:19;;;;;;;11.88;1.73;;;;;;;10.18;66.35;102919.69;5035364;28;20033;-61
2022/03/17 10:18:46;;;;;;;7.07;1.50;;;;;;;10.25;64.85;102922.50;5038156;28;20025;-62
2022/03/17 10:21:17;;;;;;;5.68;1.52;;;;;;;10.30;65.32;102933.06;5036990;28;20060;-60
2022/03/17 10:23:49;;;;;;;7.50;1.60;;;;;;;10.29;64.19;102929.56;5036922;28;20167;-60
2022/03/17 10:26:42;;;;;;;10.55;1.73;;;;;;;10.26;64.88;102939.09;5036260;28;20025;-61
2022/03/17 10:29:26;;;;;;;6.45;1.60;;;;;;;10.19;65.78;102947.66;5036890;28;20102;-61
2022/03/17 10:31:58;;;;;;;7.63;1.80;;;;;;;10.28;65.12;102945.22;5035830;28;20029;-61
2022/03/17 10:34:28;;;;;;;8.88;1.60;;;;;;;10.27;64.75;102953.94;5057531;28;20045;-61
2022/03/17 10:37:07;;;;;;;9.07;1.45;;;;;;;10.39;65.72;102952.44;5035676;28;20076;-61
2022/03/17 10:39:52;;;;;;;7.35;1.75;;;;;;;10.56;65.59;102954.56;5034430;28;20025;-61
2022/03/17 10:42:21;;;;;;;9.80;1.67;;;;;;;10.63;64.38;102966.91;5035530;28;20033;-59
2022/03/17 10:44:58;;;;;;;8.20;1.67;;;;;;;10.68;64.29;102967.91;5048852;28;20025;-61
2022/03/17 10:47:38;;;;;;;10.32;1.70;;;;;;;10.67;64.71;102967.00;5033126;28;20025;-61
2022/03/17 10:50:15;;;;;;;6.18;1.40;;;;;;;10.62;63.58;102973.88;5033496;28;20029;-61
2022/03/17 10:52:55;;;;;;;12.88;2.10;;;;;;;10.60;63.32;102979.94;5033060;28;20391;-62
2022/03/17 10:55:24;;;;;;;8.18;1.73;;;;;;;10.59;64.21;102984.28;5032827;28;20021;-61
2022/03/17 10:57:53;;;;;;;9.30;1.80;;;;;;;10.59;64.08;102986.03;5035496;28;20030;-61
2022/03/17 11:00:25;;;;;;;11.07;1.85;;;;;;;10.50;64.35;102998.94;5035537;28;20017;-62
2022/03/17 11:02:59;;;;;;;7.80;2.10;;;;;;;10.28;64.12;103005.41;5035204;28;20044;-61
2022/03/17 11:05:27;;;;;;;8.75;2.00;;;;;;;10.25;65.08;103005.34;5033447;28;20407;-61
2022/03/17 11:07:54;;;;;;;9.38;1.88;;;;;;;10.16;64.48;102999.88;5035266;28;20107;-62
2022/03/17 11:10:22;;;;;;;6.88;1.85;;;;;;;10.13;66.09;103016.38;5035159;28;20034;-62
2022/03/17 11:12:47;;;;;;;11.13;2.00;;;;;;;10.25;64.14;103028.91;5035800;28;20049;-62
2022/03/17 11:15:13;;;;;;;7.90;1.88;;;;;;;10.37;62.74;103023.97;5035726;28;20132;-62
2022/03/17 11:17:44;;;;;;;7.15;1.80;;;;;;;10.49;61.84;103026.84;5035868;28;20033;-61
2022/03/17 11:20:11;;;;;;;7.87;1.80;;;;;;;10.59;60.51;103023.56;5000971;28;1011510;-62
2022/03/17 11:22:37;;;;;;;10.48;1.67;;;;;;;10.69;59.84;103035.13;5036741;28;20376;-62
2022/03/17 11:25:25;;;;;;;6.05;1.50;;;;;;;10.80;60.97;103026.63;5036718;28;20025;-62
2022/03/17 11:28:00;;;;;;;5.53;1.50;;;;;;;10.88;59.21;103032.03;5036815;28;20076;-62
2022/03/17 11:30:30;;;;;;;9.32;1.90;;;;;;;11.01;58.73;103034.06;5036994;28;20033;-62
2022/03/17 11:32:58;;;;;;;7.30;1.52;;;;;;;11.10;58.25;103043.81;5036635;28;20102;-60